sensor_id;sensor_type;location;lat;lon;timestamp;temperature;humidity
44671;DHT22;48397;53.016;-2.260;2022-10-16T00:01:26;10.30;99.90
44671;DHT22;48397;53.016;-2.260;2022-10-16T00:03:56;9.70;99.90
44671;DHT22;48397;53.016;-2.260;2022-10-16T00:06:24;9.60;99.90
44671;DHT22;48397;53.016;-2.260;2022-10-16T00:08:52;9.70;99.90
44671;DHT22;48397;53.016;-2.260;2022-10-16T00:13:48;9.60;99.90
44671;DHT22;48397;53.016;-2.260;2022-10-16T00:16:17;9.60;99.90
44671;DHT22;48397;53.016;-2.260;2022-10-16T00:18:45;9.60;99.90
44671;DHT22;48397;53.016;-2.260;2022-10-16T00:21:14;9.60;99.90
44671;DHT22;48397;53.016;-2.260;2022-10-16T00:24:04;9.60;99.90
44671;DHT22;48397;53.016;-2.260;2022-10-16T00:26:33;9.60;99.90
44671;DHT22;48397;53.016;-2.260;2022-10-16T00:29:01;9.60;99.90
44671;DHT22;48397;53.016;-2.260;2022-10-16T00:31:30;9.50;99.90
44671;DHT22;48397;53.016;-2.260;2022-10-16T00:33:57;9.50;99.90
44671;DHT22;48397;53.016;-2.260;2022-10-16T00:36:26;9.50;99.90
44671;DHT22;48397;53.016;-2.260;2022-10-16T00:38:55;9.50;99.90
44671;DHT22;48397;53.016;-2.260;2022-10-16T00:41:25;9.50;99.90
44671;DHT22;48397;53.016;-2.260;2022-10-16T00:43:54;9.60;99.90
44671;DHT22;48397;53.016;-2.260;2022-10-16T00:46:37;9.60;99.90
44671;DHT22;48397;53.016;-2.260;2022-10-16T00:49:12;9.70;99.90
44671;DHT22;48397;53.016;-2.260;2022-10-16T00:51:46;9.80;99.90
44671;DHT22;48397;53.016;-2.260;2022-10-16T00:54:22;9.90;99.90
44671;DHT22;48397;53.016;-2.260;2022-10-16T00:56:51;10.20;99.90
44671;DHT22;48397;53.016;-2.260;2022-10-16T00:59:37;10.30;99.90
44671;DHT22;48397;53.016;-2.260;2022-10-16T01:02:07;10.50;99.90
44671;DHT22;48397;53.016;-2.260;2022-10-16T01:04:38;10.50;99.90
44671;DHT22;48397;53.016;-2.260;2022-10-16T01:07:14;10.70;99.90
44671;DHT22;48397;53.016;-2.260;2022-10-16T01:12:44;10.90;99.90
44671;DHT22;48397;53.016;-2.260;2022-10-16T01:18:00;11.00;99.90
44671;DHT22;48397;53.016;-2.260;2022-10-16T01:20:49;11.00;99.90
44671;DHT22;48397;53.016;-2.260;2022-10-16T01:29:08;10.80;99.90
44671;DHT22;48397;53.016;-2.260;2022-10-16T01:34:13;10.70;99.90
44671;DHT22;48397;53.016;-2.260;2022-10-16T01:36:55;10.60;99.90
44671;DHT22;48397;53.016;-2.260;2022-10-16T01:39:29;10.70;99.90
44671;DHT22;48397;53.016;-2.260;2022-10-16T01:42:03;10.60;99.90
44671;DHT22;48397;53.016;-2.260;2022-10-16T01:44:34;10.60;99.90
44671;DHT22;48397;53.016;-2.260;2022-10-16T01:47:04;10.60;99.90
44671;DHT22;48397;53.016;-2.260;2022-10-16T01:49:36;10.50;99.90
44671;DHT22;48397;53.016;-2.260;2022-10-16T01:52:08;10.40;99.90
44671;DHT22;48397;53.016;-2.260;2022-10-16T01:54:37;10.30;99.90
44671;DHT22;48397;53.016;-2.260;2022-10-16T01:57:08;10.30;99.90
44671;DHT22;48397;53.016;-2.260;2022-10-16T01:59:47;10.20;99.90
44671;DHT22;48397;53.016;-2.260;2022-10-16T02:02:15;10.20;99.90
44671;DHT22;48397;53.016;-2.260;2022-10-16T02:04:51;10.20;99.90
44671;DHT22;48397;53.016;-2.260;2022-10-16T02:07:20;10.10;99.90
44671;DHT22;48397;53.016;-2.260;2022-10-16T02:09:48;10.10;99.90
44671;DHT22;48397;53.016;-2.260;2022-10-16T02:12:24;10.10;99.90
44671;DHT22;48397;53.016;-2.260;2022-10-16T02:14:54;10.00;99.90
44671;DHT22;48397;53.016;-2.260;2022-10-16T02:17:22;10.00;99.90
44671;DHT22;48397;53.016;-2.260;2022-10-16T02:19:53;9.90;99.90
44671;DHT22;48397;53.016;-2.260;2022-10-16T02:22:28;9.80;99.90
44671;DHT22;48397;53.016;-2.260;2022-10-16T02:24:58;9.80;99.90
44671;DHT22;48397;53.016;-2.260;2022-10-16T02:27:41;9.80;99.90
44671;DHT22;48397;53.016;-2.260;2022-10-16T02:32:53;9.70;99.90
44671;DHT22;48397;53.016;-2.260;2022-10-16T02:35:22;9.70;99.90
44671;DHT22;48397;53.016;-2.260;2022-10-16T02:37:51;9.70;99.90
44671;DHT22;48397;53.016;-2.260;2022-10-16T02:40:19;9.70;99.90
44671;DHT22;48397;53.016;-2.260;2022-10-16T02:42:53;9.60;99.90
44671;DHT22;48397;53.016;-2.260;2022-10-16T02:45:22;9.60;99.90
44671;DHT22;48397;53.016;-2.260;2022-10-16T02:47:50;9.50;99.90
44671;DHT22;48397;53.016;-2.260;2022-10-16T02:50:17;9.50;99.90
44671;DHT22;48397;53.016;-2.260;2022-10-16T02:52:45;9.50;99.90
44671;DHT22;48397;53.016;-2.260;2022-10-16T02:55:12;9.50;99.90
44671;DHT22;48397;53.016;-2.260;2022-10-16T02:57:40;9.50;99.90
44671;DHT22;48397;53.016;-2.260;2022-10-16T03:00:09;9.50;99.90
44671;DHT22;48397;53.016;-2.260;2022-10-16T03:02:39;9.40;99.90
44671;DHT22;48397;53.016;-2.260;2022-10-16T03:05:07;9.30;99.90
44671;DHT22;48397;53.016;-2.260;2022-10-16T03:07:35;9.30;99.90
44671;DHT22;48397;53.016;-2.260;2022-10-16T03:10:03;9.20;99.90
44671;DHT22;48397;53.016;-2.260;2022-10-16T03:14:58;9.10;99.90
44671;DHT22;48397;53.016;-2.260;2022-10-16T03:17:26;9.10;99.90
44671;DHT22;48397;53.016;-2.260;2022-10-16T03:19:54;9.10;99.90
44671;DHT22;48397;53.016;-2.260;2022-10-16T03:22:22;9.00;99.90
44671;DHT22;48397;53.016;-2.260;2022-10-16T03:24:49;9.00;99.90
44671;DHT22;48397;53.016;-2.260;2022-10-16T03:27:17;8.90;99.90
44671;DHT22;48397;53.016;-2.260;2022-10-16T03:29:44;8.90;99.90
44671;DHT22;48397;53.016;-2.260;2022-10-16T03:32:12;8.70;99.90
44671;DHT22;48397;53.016;-2.260;2022-10-16T03:34:39;8.70;99.90
44671;DHT22;48397;53.016;-2.260;2022-10-16T03:37:07;8.70;99.90
44671;DHT22;48397;53.016;-2.260;2022-10-16T03:39:35;8.60;99.90
44671;DHT22;48397;53.016;-2.260;2022-10-16T03:42:03;8.60;99.90
44671;DHT22;48397;53.016;-2.260;2022-10-16T03:44:31;8.60;99.90
44671;DHT22;48397;53.016;-2.260;2022-10-16T03:46:58;8.60;99.90
44671;DHT22;48397;53.016;-2.260;2022-10-16T03:49:26;8.50;99.90
44671;DHT22;48397;53.016;-2.260;2022-10-16T03:51:55;8.50;99.90
44671;DHT22;48397;53.016;-2.260;2022-10-16T03:54:22;8.40;99.90
44671;DHT22;48397;53.016;-2.260;2022-10-16T03:56:50;8.40;99.90
44671;DHT22;48397;53.016;-2.260;2022-10-16T03:59:18;8.40;99.90
44671;DHT22;48397;53.016;-2.260;2022-10-16T04:01:45;8.40;99.90
44671;DHT22;48397;53.016;-2.260;2022-10-16T04:04:13;8.40;99.90
44671;DHT22;48397;53.016;-2.260;2022-10-16T04:06:40;8.40;99.90
44671;DHT22;48397;53.016;-2.260;2022-10-16T04:11:36;8.30;99.90
44671;DHT22;48397;53.016;-2.260;2022-10-16T04:14:03;6.10;99.90
44671;DHT22;48397;53.016;-2.260;2022-10-16T04:18:59;8.20;99.90
44671;DHT22;48397;53.016;-2.260;2022-10-16T04:21:26;8.20;99.90
44671;DHT22;48397;53.016;-2.260;2022-10-16T04:23:54;8.20;99.90
44671;DHT22;48397;53.016;-2.260;2022-10-16T04:26:21;8.10;99.90
44671;DHT22;48397;53.016;-2.260;2022-10-16T04:28:49;8.10;99.90
44671;DHT22;48397;53.016;-2.260;2022-10-16T04:31:17;8.00;99.90
44671;DHT22;48397;53.016;-2.260;2022-10-16T04:33:45;8.00;99.90
44671;DHT22;48397;53.016;-2.260;2022-10-16T04:36:13;8.00;99.90
44671;DHT22;48397;53.016;-2.260;2022-10-16T04:38:40;7.90;99.90
44671;DHT22;48397;53.016;-2.260;2022-10-16T04:41:08;7.90;99.90
44671;DHT22;48397;53.016;-2.260;2022-10-16T04:46:03;7.80;99.90
44671;DHT22;48397;53.016;-2.260;2022-10-16T04:48:32;7.80;99.90
44671;DHT22;48397;53.016;-2.260;2022-10-16T04:51:00;7.80;99.90
44671;DHT22;48397;53.016;-2.260;2022-10-16T04:53:28;7.70;99.90
44671;DHT22;48397;53.016;-2.260;2022-10-16T04:55:55;7.80;99.90
44671;DHT22;48397;53.016;-2.260;2022-10-16T04:58:24;7.80;99.90
44671;DHT22;48397;53.016;-2.260;2022-10-16T05:00:52;7.80;99.90
44671;DHT22;48397;53.016;-2.260;2022-10-16T05:03:19;7.80;99.90
44671;DHT22;48397;53.016;-2.260;2022-10-16T05:05:47;7.80;99.90
44671;DHT22;48397;53.016;-2.260;2022-10-16T05:08:16;7.80;99.90
44671;DHT22;48397;53.016;-2.260;2022-10-16T05:10:44;7.80;99.90
44671;DHT22;48397;53.016;-2.260;2022-10-16T05:13:12;7.80;99.90
44671;DHT22;48397;53.016;-2.260;2022-10-16T05:15:40;7.80;99.90
44671;DHT22;48397;53.016;-2.260;2022-10-16T05:18:08;7.80;99.90
44671;DHT22;48397;53.016;-2.260;2022-10-16T05:20:36;7.80;99.90
44671;DHT22;48397;53.016;-2.260;2022-10-16T05:23:04;7.80;99.90
44671;DHT22;48397;53.016;-2.260;2022-10-16T05:25:31;7.80;99.90
44671;DHT22;48397;53.016;-2.260;2022-10-16T05:27:59;7.80;99.90
44671;DHT22;48397;53.016;-2.260;2022-10-16T05:30:27;7.70;99.90
44671;DHT22;48397;53.016;-2.260;2022-10-16T05:35:22;7.80;99.90
44671;DHT22;48397;53.016;-2.260;2022-10-16T05:37:50;7.80;99.90
44671;DHT22;48397;53.016;-2.260;2022-10-16T05:40:17;7.80;99.90
44671;DHT22;48397;53.016;-2.260;2022-10-16T05:42:45;7.80;99.90
44671;DHT22;48397;53.016;-2.260;2022-10-16T05:45:12;7.80;99.90
44671;DHT22;48397;53.016;-2.260;2022-10-16T05:47:40;7.70;99.90
44671;DHT22;48397;53.016;-2.260;2022-10-16T05:50:08;7.70;99.90
44671;DHT22;48397;53.016;-2.260;2022-10-16T05:52:36;7.60;99.90
44671;DHT22;48397;53.016;-2.260;2022-10-16T05:55:03;7.70;99.90
44671;DHT22;48397;53.016;-2.260;2022-10-16T05:57:31;7.70;99.90
44671;DHT22;48397;53.016;-2.260;2022-10-16T05:59:59;7.60;99.90
44671;DHT22;48397;53.016;-2.260;2022-10-16T06:02:26;7.50;99.90
44671;DHT22;48397;53.016;-2.260;2022-10-16T06:04:54;7.50;99.90
44671;DHT22;48397;53.016;-2.260;2022-10-16T06:07:22;7.50;99.90
44671;DHT22;48397;53.016;-2.260;2022-10-16T06:09:51;7.40;99.90
44671;DHT22;48397;53.016;-2.260;2022-10-16T06:12:19;7.30;99.90
44671;DHT22;48397;53.016;-2.260;2022-10-16T06:14:48;7.40;99.90
44671;DHT22;48397;53.016;-2.260;2022-10-16T06:17:16;7.40;99.90
44671;DHT22;48397;53.016;-2.260;2022-10-16T06:19:43;7.40;99.90
44671;DHT22;48397;53.016;-2.260;2022-10-16T06:22:11;7.30;99.90
44671;DHT22;48397;53.016;-2.260;2022-10-16T06:24:38;7.30;99.90
44671;DHT22;48397;53.016;-2.260;2022-10-16T06:27:06;7.30;99.90
44671;DHT22;48397;53.016;-2.260;2022-10-16T06:29:34;7.20;99.90
44671;DHT22;48397;53.016;-2.260;2022-10-16T06:32:01;7.20;99.90
44671;DHT22;48397;53.016;-2.260;2022-10-16T06:34:30;7.10;99.90
44671;DHT22;48397;53.016;-2.260;2022-10-16T06:36:57;7.10;99.90
44671;DHT22;48397;53.016;-2.260;2022-10-16T06:39:25;7.00;99.90
44671;DHT22;48397;53.016;-2.260;2022-10-16T06:41:52;6.90;99.90
44671;DHT22;48397;53.016;-2.260;2022-10-16T06:44:20;7.00;99.90
44671;DHT22;48397;53.016;-2.260;2022-10-16T06:46:48;6.90;99.90
44671;DHT22;48397;53.016;-2.260;2022-10-16T06:49:15;6.90;99.90
44671;DHT22;48397;53.016;-2.260;2022-10-16T06:51:48;6.90;99.90
44671;DHT22;48397;53.016;-2.260;2022-10-16T06:54:16;6.90;99.90
44671;DHT22;48397;53.016;-2.260;2022-10-16T06:59:13;6.80;99.90
44671;DHT22;48397;53.016;-2.260;2022-10-16T07:01:40;6.90;99.90
44671;DHT22;48397;53.016;-2.260;2022-10-16T07:04:08;6.80;99.90
44671;DHT22;48397;53.016;-2.260;2022-10-16T07:06:35;6.80;99.90
44671;DHT22;48397;53.016;-2.260;2022-10-16T07:09:05;6.80;99.90
44671;DHT22;48397;53.016;-2.260;2022-10-16T07:11:33;6.80;99.90
44671;DHT22;48397;53.016;-2.260;2022-10-16T07:14:01;6.80;99.90
44671;DHT22;48397;53.016;-2.260;2022-10-16T07:16:31;6.00;99.90
44671;DHT22;48397;53.016;-2.260;2022-10-16T07:19:00;7.00;99.90
44671;DHT22;48397;53.016;-2.260;2022-10-16T07:21:31;6.90;99.90
44671;DHT22;48397;53.016;-2.260;2022-10-16T07:24:04;7.00;99.90
44671;DHT22;48397;53.016;-2.260;2022-10-16T07:26:34;6.90;99.90
44671;DHT22;48397;53.016;-2.260;2022-10-16T07:29:02;6.90;99.90
44671;DHT22;48397;53.016;-2.260;2022-10-16T07:31:31;6.90;99.90
44671;DHT22;48397;53.016;-2.260;2022-10-16T07:34:00;6.80;99.90
44671;DHT22;48397;53.016;-2.260;2022-10-16T07:36:27;6.90;99.90
44671;DHT22;48397;53.016;-2.260;2022-10-16T07:38:55;6.90;99.90
44671;DHT22;48397;53.016;-2.260;2022-10-16T07:41:27;6.90;99.90
44671;DHT22;48397;53.016;-2.260;2022-10-16T07:43:55;6.80;99.90
44671;DHT22;48397;53.016;-2.260;2022-10-16T07:46:27;6.90;99.90
44671;DHT22;48397;53.016;-2.260;2022-10-16T07:48:54;7.00;99.90
44671;DHT22;48397;53.016;-2.260;2022-10-16T07:51:24;7.00;99.90
44671;DHT22;48397;53.016;-2.260;2022-10-16T07:53:52;7.20;99.90
44671;DHT22;48397;53.016;-2.260;2022-10-16T07:56:20;7.00;99.90
44671;DHT22;48397;53.016;-2.260;2022-10-16T07:58:48;7.20;99.90
44671;DHT22;48397;53.016;-2.260;2022-10-16T08:01:18;7.20;99.90
44671;DHT22;48397;53.016;-2.260;2022-10-16T08:03:48;7.30;99.90
44671;DHT22;48397;53.016;-2.260;2022-10-16T08:06:17;7.40;99.90
44671;DHT22;48397;53.016;-2.260;2022-10-16T08:08:51;7.60;99.90
44671;DHT22;48397;53.016;-2.260;2022-10-16T08:11:19;7.70;99.90
44671;DHT22;48397;53.016;-2.260;2022-10-16T08:13:46;7.90;99.90
44671;DHT22;48397;53.016;-2.260;2022-10-16T08:16:14;7.90;99.90
44671;DHT22;48397;53.016;-2.260;2022-10-16T08:18:42;8.10;99.90
44671;DHT22;48397;53.016;-2.260;2022-10-16T08:21:16;8.10;99.90
44671;DHT22;48397;53.016;-2.260;2022-10-16T08:23:48;8.30;99.90
44671;DHT22;48397;53.016;-2.260;2022-10-16T08:26:23;8.40;99.90
44671;DHT22;48397;53.016;-2.260;2022-10-16T08:28:51;8.50;99.90
44671;DHT22;48397;53.016;-2.260;2022-10-16T08:31:19;8.60;99.90
44671;DHT22;48397;53.016;-2.260;2022-10-16T08:33:47;8.70;99.90
44671;DHT22;48397;53.016;-2.260;2022-10-16T08:36:16;8.90;99.90
44671;DHT22;48397;53.016;-2.260;2022-10-16T08:38:43;8.90;99.90
44671;DHT22;48397;53.016;-2.260;2022-10-16T08:44:23;9.10;99.90
44671;DHT22;48397;53.016;-2.260;2022-10-16T08:47:17;9.20;99.90
44671;DHT22;48397;53.016;-2.260;2022-10-16T08:49:56;9.20;99.90
44671;DHT22;48397;53.016;-2.260;2022-10-16T08:52:34;9.30;99.90
44671;DHT22;48397;53.016;-2.260;2022-10-16T08:55:03;9.30;99.90
44671;DHT22;48397;53.016;-2.260;2022-10-16T08:57:31;9.30;99.90
44671;DHT22;48397;53.016;-2.260;2022-10-16T09:00:00;9.40;99.90
44671;DHT22;48397;53.016;-2.260;2022-10-16T09:02:37;9.40;99.90
44671;DHT22;48397;53.016;-2.260;2022-10-16T09:13:33;9.80;99.90
44671;DHT22;48397;53.016;-2.260;2022-10-16T09:16:27;9.80;99.90
44671;DHT22;48397;53.016;-2.260;2022-10-16T09:19:15;9.90;99.90
44671;DHT22;48397;53.016;-2.260;2022-10-16T09:21:45;10.00;99.90
44671;DHT22;48397;53.016;-2.260;2022-10-16T09:24:18;10.00;99.90
44671;DHT22;48397;53.016;-2.260;2022-10-16T09:26:49;10.10;99.90
44671;DHT22;48397;53.016;-2.260;2022-10-16T09:29:19;10.10;99.90
44671;DHT22;48397;53.016;-2.260;2022-10-16T09:31:53;10.20;99.90
44671;DHT22;48397;53.016;-2.260;2022-10-16T09:34:30;10.20;99.90
44671;DHT22;48397;53.016;-2.260;2022-10-16T09:37:02;10.30;99.90
44671;DHT22;48397;53.016;-2.260;2022-10-16T09:39:47;10.40;99.90
44671;DHT22;48397;53.016;-2.260;2022-10-16T09:42:20;10.50;99.90
44671;DHT22;48397;53.016;-2.260;2022-10-16T09:44:51;10.50;99.90
44671;DHT22;48397;53.016;-2.260;2022-10-16T09:47:27;10.60;99.90
44671;DHT22;48397;53.016;-2.260;2022-10-16T09:50:01;10.70;99.90
44671;DHT22;48397;53.016;-2.260;2022-10-16T09:52:32;10.80;99.90
44671;DHT22;48397;53.016;-2.260;2022-10-16T09:55:02;10.90;99.90
44671;DHT22;48397;53.016;-2.260;2022-10-16T09:57:30;10.90;99.90
44671;DHT22;48397;53.016;-2.260;2022-10-16T09:59:58;11.00;99.90
44671;DHT22;48397;53.016;-2.260;2022-10-16T10:04:54;11.10;99.90
44671;DHT22;48397;53.016;-2.260;2022-10-16T10:07:27;11.20;99.90
44671;DHT22;48397;53.016;-2.260;2022-10-16T10:09:57;11.20;99.90
44671;DHT22;48397;53.016;-2.260;2022-10-16T10:12:29;11.30;99.90
44671;DHT22;48397;53.016;-2.260;2022-10-16T10:15:11;11.40;99.90
44671;DHT22;48397;53.016;-2.260;2022-10-16T10:17:48;11.50;99.90
44671;DHT22;48397;53.016;-2.260;2022-10-16T10:20:34;11.50;99.90
44671;DHT22;48397;53.016;-2.260;2022-10-16T10:23:23;11.60;99.90
44671;DHT22;48397;53.016;-2.260;2022-10-16T10:26:34;11.60;99.90
44671;DHT22;48397;53.016;-2.260;2022-10-16T10:50:56;12.40;99.90
44671;DHT22;48397;53.016;-2.260;2022-10-16T10:54:31;12.50;99.90
44671;DHT22;48397;53.016;-2.260;2022-10-16T10:56:58;12.70;99.90
44671;DHT22;48397;53.016;-2.260;2022-10-16T11:07:39;12.80;99.90
44671;DHT22;48397;53.016;-2.260;2022-10-16T11:10:28;12.90;99.90
44671;DHT22;48397;53.016;-2.260;2022-10-16T11:13:30;12.90;99.90
44671;DHT22;48397;53.016;-2.260;2022-10-16T11:16:04;13.00;99.90
44671;DHT22;48397;53.016;-2.260;2022-10-16T11:18:49;13.10;99.90
44671;DHT22;48397;53.016;-2.260;2022-10-16T11:21:19;13.20;99.90
44671;DHT22;48397;53.016;-2.260;2022-10-16T11:24:14;13.20;99.90
44671;DHT22;48397;53.016;-2.260;2022-10-16T11:26:46;13.10;99.90
44671;DHT22;48397;53.016;-2.260;2022-10-16T11:29:19;13.10;99.90
44671;DHT22;48397;53.016;-2.260;2022-10-16T11:31:53;13.00;99.90
44671;DHT22;48397;53.016;-2.260;2022-10-16T11:34:29;13.10;99.90
44671;DHT22;48397;53.016;-2.260;2022-10-16T11:40:23;12.80;99.90
44671;DHT22;48397;53.016;-2.260;2022-10-16T11:45:55;12.80;99.90
44671;DHT22;48397;53.016;-2.260;2022-10-16T11:48:36;12.80;99.90
44671;DHT22;48397;53.016;-2.260;2022-10-16T11:51:33;12.90;99.90
44671;DHT22;48397;53.016;-2.260;2022-10-16T11:54:26;13.10;99.90
44671;DHT22;48397;53.016;-2.260;2022-10-16T11:57:05;13.10;99.90
44671;DHT22;48397;53.016;-2.260;2022-10-16T11:59:47;13.30;99.90
44671;DHT22;48397;53.016;-2.260;2022-10-16T12:02:31;13.40;99.90
44671;DHT22;48397;53.016;-2.260;2022-10-16T12:05:12;13.60;99.90
44671;DHT22;48397;53.016;-2.260;2022-10-16T12:07:56;13.70;99.90
44671;DHT22;48397;53.016;-2.260;2022-10-16T12:10:29;13.90;99.90
44671;DHT22;48397;53.016;-2.260;2022-10-16T12:12:59;14.00;99.90
44671;DHT22;48397;53.016;-2.260;2022-10-16T12:15:27;14.00;99.90
44671;DHT22;48397;53.016;-2.260;2022-10-16T12:18:22;14.20;99.90
44671;DHT22;48397;53.016;-2.260;2022-10-16T12:20:58;14.30;99.90
44671;DHT22;48397;53.016;-2.260;2022-10-16T12:23:47;14.30;99.90
44671;DHT22;48397;53.016;-2.260;2022-10-16T12:26:25;14.30;99.90
44671;DHT22;48397;53.016;-2.260;2022-10-16T12:28:54;14.30;99.90
44671;DHT22;48397;53.016;-2.260;2022-10-16T12:31:22;14.30;99.90
44671;DHT22;48397;53.016;-2.260;2022-10-16T12:34:02;14.30;99.90
44671;DHT22;48397;53.016;-2.260;2022-10-16T12:36:32;14.40;99.90
44671;DHT22;48397;53.016;-2.260;2022-10-16T12:39:01;14.40;99.90
44671;DHT22;48397;53.016;-2.260;2022-10-16T12:41:34;14.50;99.90
44671;DHT22;48397;53.016;-2.260;2022-10-16T12:44:03;14.60;99.90
44671;DHT22;48397;53.016;-2.260;2022-10-16T12:51:41;14.60;99.90
44671;DHT22;48397;53.016;-2.260;2022-10-16T12:54:17;14.60;99.90
44671;DHT22;48397;53.016;-2.260;2022-10-16T12:59:50;14.40;99.90
44671;DHT22;48397;53.016;-2.260;2022-10-16T13:02:54;14.40;99.90
44671;DHT22;48397;53.016;-2.260;2022-10-16T13:15:33;14.00;99.90
44671;DHT22;48397;53.016;-2.260;2022-10-16T13:18:22;14.00;99.90
44671;DHT22;48397;53.016;-2.260;2022-10-16T13:23:38;14.10;99.90
44671;DHT22;48397;53.016;-2.260;2022-10-16T13:26:26;14.10;99.90
44671;DHT22;48397;53.016;-2.260;2022-10-16T13:28:59;14.40;99.90
44671;DHT22;48397;53.016;-2.260;2022-10-16T13:31:28;14.60;99.90
44671;DHT22;48397;53.016;-2.260;2022-10-16T13:33:58;14.60;99.90
44671;DHT22;48397;53.016;-2.260;2022-10-16T13:36:34;15.10;99.90
44671;DHT22;48397;53.016;-2.260;2022-10-16T13:39:22;15.00;99.90
44671;DHT22;48397;53.016;-2.260;2022-10-16T13:42:10;15.50;99.90
44671;DHT22;48397;53.016;-2.260;2022-10-16T13:44:48;15.50;99.90
44671;DHT22;48397;53.016;-2.260;2022-10-16T13:47:25;15.50;99.90
44671;DHT22;48397;53.016;-2.260;2022-10-16T13:50:02;15.30;99.90
44671;DHT22;48397;53.016;-2.260;2022-10-16T13:52:30;15.20;99.90
44671;DHT22;48397;53.016;-2.260;2022-10-16T13:54:58;15.10;99.90
44671;DHT22;48397;53.016;-2.260;2022-10-16T13:57:28;15.20;99.90
44671;DHT22;48397;53.016;-2.260;2022-10-16T13:59:56;15.00;99.90
44671;DHT22;48397;53.016;-2.260;2022-10-16T14:02:42;15.00;99.90
44671;DHT22;48397;53.016;-2.260;2022-10-16T14:05:10;14.90;99.90
44671;DHT22;48397;53.016;-2.260;2022-10-16T14:07:38;14.90;99.90
44671;DHT22;48397;53.016;-2.260;2022-10-16T14:10:18;14.80;99.90
44671;DHT22;48397;53.016;-2.260;2022-10-16T14:12:58;14.90;99.90
44671;DHT22;48397;53.016;-2.260;2022-10-16T14:15:26;15.00;99.90
44671;DHT22;48397;53.016;-2.260;2022-10-16T14:17:54;15.10;99.90
44671;DHT22;48397;53.016;-2.260;2022-10-16T14:20:26;15.00;99.90
44671;DHT22;48397;53.016;-2.260;2022-10-16T14:23:18;15.00;99.90
44671;DHT22;48397;53.016;-2.260;2022-10-16T14:25:47;15.00;99.90
44671;DHT22;48397;53.016;-2.260;2022-10-16T14:28:22;14.90;99.90
44671;DHT22;48397;53.016;-2.260;2022-10-16T14:30:59;14.90;99.90
44671;DHT22;48397;53.016;-2.260;2022-10-16T14:38:43;14.70;99.90
44671;DHT22;48397;53.016;-2.260;2022-10-16T14:41:15;14.60;99.90
44671;DHT22;48397;53.016;-2.260;2022-10-16T14:43:50;14.60;99.90
44671;DHT22;48397;53.016;-2.260;2022-10-16T14:46:21;14.60;99.90
44671;DHT22;48397;53.016;-2.260;2022-10-16T14:49:17;14.60;99.90
44671;DHT22;48397;53.016;-2.260;2022-10-16T14:51:46;14.60;99.90
44671;DHT22;48397;53.016;-2.260;2022-10-16T14:54:16;14.70;99.90
44671;DHT22;48397;53.016;-2.260;2022-10-16T14:56:55;14.70;99.90
44671;DHT22;48397;53.016;-2.260;2022-10-16T14:59:39;14.80;99.90
44671;DHT22;48397;53.016;-2.260;2022-10-16T15:04:25;14.90;99.90
44671;DHT22;48397;53.016;-2.260;2022-10-16T15:06:53;15.20;99.90
44671;DHT22;48397;53.016;-2.260;2022-10-16T15:09:21;15.50;99.90
44671;DHT22;48397;53.016;-2.260;2022-10-16T15:11:48;15.60;99.90
44671;DHT22;48397;53.016;-2.260;2022-10-16T15:14:16;15.60;99.90
44671;DHT22;48397;53.016;-2.260;2022-10-16T15:16:43;15.70;99.90
44671;DHT22;48397;53.016;-2.260;2022-10-16T15:19:11;15.80;99.90
44671;DHT22;48397;53.016;-2.260;2022-10-16T15:21:39;17.40;99.90
44671;DHT22;48397;53.016;-2.260;2022-10-16T15:24:12;15.00;99.90
44671;DHT22;48397;53.016;-2.260;2022-10-16T15:26:45;15.60;99.90
44671;DHT22;48397;53.016;-2.260;2022-10-16T15:29:17;15.40;99.90
44671;DHT22;48397;53.016;-2.260;2022-10-16T15:31:44;15.30;99.90
44671;DHT22;48397;53.016;-2.260;2022-10-16T15:34:14;15.40;99.90
44671;DHT22;48397;53.016;-2.260;2022-10-16T15:36:42;15.40;99.90
44671;DHT22;48397;53.016;-2.260;2022-10-16T15:39:17;15.40;99.90
44671;DHT22;48397;53.016;-2.260;2022-10-16T15:41:46;15.30;99.90
44671;DHT22;48397;53.016;-2.260;2022-10-16T15:44:18;15.30;99.90
44671;DHT22;48397;53.016;-2.260;2022-10-16T15:46:46;15.20;99.90
44671;DHT22;48397;53.016;-2.260;2022-10-16T15:49:14;15.00;99.90
44671;DHT22;48397;53.016;-2.260;2022-10-16T15:51:43;14.80;99.90
44671;DHT22;48397;53.016;-2.260;2022-10-16T15:56:38;14.80;99.90
44671;DHT22;48397;53.016;-2.260;2022-10-16T16:01:35;14.60;99.90
44671;DHT22;48397;53.016;-2.260;2022-10-16T16:06:46;14.30;99.90
44671;DHT22;48397;53.016;-2.260;2022-10-16T16:09:15;14.10;99.90
44671;DHT22;48397;53.016;-2.260;2022-10-16T16:11:43;14.00;99.90
44671;DHT22;48397;53.016;-2.260;2022-10-16T16:14:12;13.80;99.90
44671;DHT22;48397;53.016;-2.260;2022-10-16T16:16:40;13.60;99.90
44671;DHT22;48397;53.016;-2.260;2022-10-16T16:19:08;13.70;99.90
44671;DHT22;48397;53.016;-2.260;2022-10-16T16:21:38;13.60;99.90
44671;DHT22;48397;53.016;-2.260;2022-10-16T16:24:06;13.60;99.90
44671;DHT22;48397;53.016;-2.260;2022-10-16T16:26:36;13.50;99.90
44671;DHT22;48397;53.016;-2.260;2022-10-16T16:29:04;13.40;99.90
44671;DHT22;48397;53.016;-2.260;2022-10-16T16:31:32;13.40;99.90
44671;DHT22;48397;53.016;-2.260;2022-10-16T16:34:01;13.30;99.90
44671;DHT22;48397;53.016;-2.260;2022-10-16T16:36:30;13.10;99.90
44671;DHT22;48397;53.016;-2.260;2022-10-16T16:38:58;13.20;99.90
44671;DHT22;48397;53.016;-2.260;2022-10-16T16:41:28;13.00;99.90
44671;DHT22;48397;53.016;-2.260;2022-10-16T16:44:05;12.90;99.90
44671;DHT22;48397;53.016;-2.260;2022-10-16T16:46:33;12.80;99.90
44671;DHT22;48397;53.016;-2.260;2022-10-16T16:49:03;12.80;99.90
44671;DHT22;48397;53.016;-2.260;2022-10-16T16:51:31;12.70;99.90
44671;DHT22;48397;53.016;-2.260;2022-10-16T16:54:05;12.60;99.90
44671;DHT22;48397;53.016;-2.260;2022-10-16T16:56:34;12.60;99.90
44671;DHT22;48397;53.016;-2.260;2022-10-16T16:59:02;12.60;99.90
44671;DHT22;48397;53.016;-2.260;2022-10-16T17:01:31;12.60;99.90
44671;DHT22;48397;53.016;-2.260;2022-10-16T17:03:58;12.60;99.90
44671;DHT22;48397;53.016;-2.260;2022-10-16T17:06:28;12.50;99.90
44671;DHT22;48397;53.016;-2.260;2022-10-16T17:09:01;12.50;99.90
44671;DHT22;48397;53.016;-2.260;2022-10-16T17:11:43;12.50;99.90
44671;DHT22;48397;53.016;-2.260;2022-10-16T17:14:19;12.50;99.90
44671;DHT22;48397;53.016;-2.260;2022-10-16T17:16:47;12.50;99.90
44671;DHT22;48397;53.016;-2.260;2022-10-16T17:19:18;12.50;99.90
44671;DHT22;48397;53.016;-2.260;2022-10-16T17:21:52;13.60;99.90
44671;DHT22;48397;53.016;-2.260;2022-10-16T17:24:20;12.30;99.90
44671;DHT22;48397;53.016;-2.260;2022-10-16T17:26:48;12.40;99.90
44671;DHT22;48397;53.016;-2.260;2022-10-16T17:29:16;12.40;99.90
44671;DHT22;48397;53.016;-2.260;2022-10-16T17:31:45;12.40;99.90
44671;DHT22;48397;53.016;-2.260;2022-10-16T17:34:13;12.40;99.90
44671;DHT22;48397;53.016;-2.260;2022-10-16T17:36:40;12.50;99.90
44671;DHT22;48397;53.016;-2.260;2022-10-16T17:39:12;12.40;99.90
44671;DHT22;48397;53.016;-2.260;2022-10-16T17:41:40;12.40;99.90
44671;DHT22;48397;53.016;-2.260;2022-10-16T17:44:09;12.30;99.90
44671;DHT22;48397;53.016;-2.260;2022-10-16T17:46:36;12.40;99.90
44671;DHT22;48397;53.016;-2.260;2022-10-16T17:49:08;12.40;99.90
44671;DHT22;48397;53.016;-2.260;2022-10-16T17:51:37;12.40;99.90